sensor_id;sensor_type;location;lat;lon;timestamp;P1;durP1;ratioP1;P2;durP2;ratioP2
17773;SDS011;9011;33.236;-97.118;2022-07-23T00:00:21;10.98;;;3.65;;
17773;SDS011;9011;33.236;-97.118;2022-07-23T00:02:49;9.63;;;3.63;;
17773;SDS011;9011;33.236;-97.118;2022-07-23T00:05:17;10.45;;;3.72;;
17773;SDS011;9011;33.236;-97.118;2022-07-23T00:07:45;9.15;;;3.38;;
17773;SDS011;9011;33.236;-97.118;2022-07-23T00:10:14;7.40;;;3.60;;
17773;SDS011;9011;33.236;-97.118;2022-07-23T00:12:42;7.80;;;3.38;;
17773;SDS011;9011;33.236;-97.118;2022-07-23T00:15:12;9.80;;;3.92;;
17773;SDS011;9011;33.236;-97.118;2022-07-23T00:17:41;14.13;;;4.60;;
17773;SDS011;9011;33.236;-97.118;2022-07-23T00:20:09;13.35;;;3.80;;
17773;SDS011;9011;33.236;-97.118;2022-07-23T00:22:45;11.80;;;3.67;;
17773;SDS011;9011;33.236;-97.118;2022-07-23T00:25:14;8.32;;;3.53;;
17773;SDS011;9011;33.236;-97.118;2022-07-23T00:27:43;7.75;;;3.95;;
17773;SDS011;9011;33.236;-97.118;2022-07-23T00:30:14;10.38;;;4.40;;
17773;SDS011;9011;33.236;-97.118;2022-07-23T00:32:45;12.65;;;3.95;;
17773;SDS011;9011;33.236;-97.118;2022-07-23T00:35:14;9.25;;;3.85;;
17773;SDS011;9011;33.236;-97.118;2022-07-23T00:37:43;9.38;;;4.78;;
17773;SDS011;9011;33.236;-97.118;2022-07-23T00:40:12;9.18;;;3.58;;
17773;SDS011;9011;33.236;-97.118;2022-07-23T00:42:40;11.00;;;3.38;;
17773;SDS011;9011;33.236;-97.118;2022-07-23T00:45:09;9.70;;;3.83;;
17773;SDS011;9011;33.236;-97.118;2022-07-23T00:47:40;12.43;;;4.60;;
17773;SDS011;9011;33.236;-97.118;2022-07-23T00:50:08;8.30;;;4.05;;
17773;SDS011;9011;33.236;-97.118;2022-07-23T00:52:38;9.70;;;3.83;;
17773;SDS011;9011;33.236;-97.118;2022-07-23T00:55:07;6.72;;;3.30;;
17773;SDS011;9011;33.236;-97.118;2022-07-23T00:57:37;11.73;;;4.20;;
17773;SDS011;9011;33.236;-97.118;2022-07-23T01:00:07;10.52;;;3.75;;
17773;SDS011;9011;33.236;-97.118;2022-07-23T01:02:39;12.90;;;4.20;;
17773;SDS011;9011;33.236;-97.118;2022-07-23T01:05:07;8.45;;;3.88;;
17773;SDS011;9011;33.236;-97.118;2022-07-23T01:07:37;6.85;;;3.72;;
17773;SDS011;9011;33.236;-97.118;2022-07-23T01:10:05;7.75;;;3.80;;
17773;SDS011;9011;33.236;-97.118;2022-07-23T01:12:55;10.20;;;3.58;;
17773;SDS011;9011;33.236;-97.118;2022-07-23T01:15:24;9.25;;;4.45;;
17773;SDS011;9011;33.236;-97.118;2022-07-23T01:17:54;11.52;;;3.90;;
17773;SDS011;9011;33.236;-97.118;2022-07-23T01:20:22;10.27;;;4.97;;
17773;SDS011;9011;33.236;-97.118;2022-07-23T01:22:52;11.65;;;4.10;;
17773;SDS011;9011;33.236;-97.118;2022-07-23T01:25:20;9.95;;;4.05;;
17773;SDS011;9011;33.236;-97.118;2022-07-23T01:27:49;7.18;;;3.53;;
17773;SDS011;9011;33.236;-97.118;2022-07-23T01:30:19;12.50;;;4.20;;
17773;SDS011;9011;33.236;-97.118;2022-07-23T01:32:47;9.73;;;3.97;;
17773;SDS011;9011;33.236;-97.118;2022-07-23T01:35:16;13.80;;;3.70;;
17773;SDS011;9011;33.236;-97.118;2022-07-23T01:37:44;11.90;;;4.55;;
17773;SDS011;9011;33.236;-97.118;2022-07-23T01:40:14;13.55;;;4.40;;
17773;SDS011;9011;33.236;-97.118;2022-07-23T01:42:43;10.15;;;3.50;;
17773;SDS011;9011;33.236;-97.118;2022-07-23T01:45:11;10.57;;;4.25;;
17773;SDS011;9011;33.236;-97.118;2022-07-23T01:47:40;13.80;;;4.00;;
17773;SDS011;9011;33.236;-97.118;2022-07-23T01:50:08;10.80;;;4.05;;
17773;SDS011;9011;33.236;-97.118;2022-07-23T01:52:37;6.32;;;3.05;;
17773;SDS011;9011;33.236;-97.118;2022-07-23T01:55:06;13.30;;;4.45;;
17773;SDS011;9011;33.236;-97.118;2022-07-23T01:57:36;7.00;;;3.50;;
17773;SDS011;9011;33.236;-97.118;2022-07-23T02:00:05;6.93;;;3.55;;
17773;SDS011;9011;33.236;-97.118;2022-07-23T02:02:34;6.20;;;2.95;;
17773;SDS011;9011;33.236;-97.118;2022-07-23T02:05:03;9.75;;;3.70;;
17773;SDS011;9011;33.236;-97.118;2022-07-23T02:07:31;9.82;;;4.03;;
17773;SDS011;9011;33.236;-97.118;2022-07-23T02:10:00;8.88;;;3.20;;
17773;SDS011;9011;33.236;-97.118;2022-07-23T02:12:28;8.15;;;3.17;;
17773;SDS011;9011;33.236;-97.118;2022-07-23T02:14:58;9.00;;;3.65;;
17773;SDS011;9011;33.236;-97.118;2022-07-23T02:17:26;11.15;;;3.40;;
17773;SDS011;9011;33.236;-97.118;2022-07-23T02:19:54;7.93;;;3.85;;
17773;SDS011;9011;33.236;-97.118;2022-07-23T02:22:23;10.30;;;3.70;;
17773;SDS011;9011;33.236;-97.118;2022-07-23T02:24:52;8.10;;;4.25;;
17773;SDS011;9011;33.236;-97.118;2022-07-23T02:27:21;10.88;;;3.97;;
17773;SDS011;9011;33.236;-97.118;2022-07-23T02:29:49;12.00;;;4.50;;
17773;SDS011;9011;33.236;-97.118;2022-07-23T02:32:19;11.93;;;4.53;;
17773;SDS011;9011;33.236;-97.118;2022-07-23T02:34:47;7.95;;;3.42;;
17773;SDS011;9011;33.236;-97.118;2022-07-23T02:37:16;7.22;;;3.38;;
17773;SDS011;9011;33.236;-97.118;2022-07-23T02:39:44;7.72;;;2.95;;
17773;SDS011;9011;33.236;-97.118;2022-07-23T02:42:13;7.32;;;2.85;;
17773;SDS011;9011;33.236;-97.118;2022-07-23T02:44:43;7.55;;;2.65;;
17773;SDS011;9011;33.236;-97.118;2022-07-23T02:47:11;7.43;;;2.75;;
17773;SDS011;9011;33.236;-97.118;2022-07-23T02:49:41;10.63;;;2.90;;
17773;SDS011;9011;33.236;-97.118;2022-07-23T02:52:09;6.18;;;2.25;;
17773;SDS011;9011;33.236;-97.118;2022-07-23T02:54:38;5.15;;;2.28;;
17773;SDS011;9011;33.236;-97.118;2022-07-23T02:57:06;7.07;;;2.28;;
17773;SDS011;9011;33.236;-97.118;2022-07-23T02:59:34;6.65;;;2.40;;
17773;SDS011;9011;33.236;-97.118;2022-07-23T03:02:02;5.35;;;1.90;;
17773;SDS011;9011;33.236;-97.118;2022-07-23T03:04:31;6.38;;;2.33;;
17773;SDS011;9011;33.236;-97.118;2022-07-23T03:07:01;5.82;;;2.30;;
17773;SDS011;9011;33.236;-97.118;2022-07-23T03:09:29;6.40;;;2.28;;
17773;SDS011;9011;33.236;-97.118;2022-07-23T03:11:57;5.65;;;2.35;;
17773;SDS011;9011;33.236;-97.118;2022-07-23T03:14:26;6.03;;;2.25;;
17773;SDS011;9011;33.236;-97.118;2022-07-23T03:16:54;7.18;;;2.70;;
17773;SDS011;9011;33.236;-97.118;2022-07-23T03:19:22;6.07;;;2.13;;
17773;SDS011;9011;33.236;-97.118;2022-07-23T03:21:51;5.75;;;2.63;;
17773;SDS011;9011;33.236;-97.118;2022-07-23T03:24:20;3.70;;;2.15;;
17773;SDS011;9011;33.236;-97.118;2022-07-23T03:27:10;9.50;;;2.60;;
17773;SDS011;9011;33.236;-97.118;2022-07-23T03:29:38;9.32;;;2.88;;
17773;SDS011;9011;33.236;-97.118;2022-07-23T03:32:07;5.57;;;2.70;;
17773;SDS011;9011;33.236;-97.118;2022-07-23T03:34:35;6.22;;;3.03;;
17773;SDS011;9011;33.236;-97.118;2022-07-23T03:37:04;7.47;;;3.38;;
17773;SDS011;9011;33.236;-97.118;2022-07-23T03:39:34;6.20;;;3.30;;
17773;SDS011;9011;33.236;-97.118;2022-07-23T03:42:02;8.27;;;3.33;;
17773;SDS011;9011;33.236;-97.118;2022-07-23T03:44:31;8.13;;;3.90;;
17773;SDS011;9011;33.236;-97.118;2022-07-23T03:46:59;7.63;;;4.18;;
17773;SDS011;9011;33.236;-97.118;2022-07-23T03:49:28;10.13;;;4.60;;
17773;SDS011;9011;33.236;-97.118;2022-07-23T03:51:56;9.13;;;4.55;;
17773;SDS011;9011;33.236;-97.118;2022-07-23T03:54:25;8.85;;;4.72;;
17773;SDS011;9011;33.236;-97.118;2022-07-23T03:56:55;8.65;;;3.88;;
17773;SDS011;9011;33.236;-97.118;2022-07-23T03:59:23;10.10;;;4.93;;
17773;SDS011;9011;33.236;-97.118;2022-07-23T04:01:52;14.18;;;4.70;;
17773;SDS011;9011;33.236;-97.118;2022-07-23T04:04:20;7.45;;;4.30;;
17773;SDS011;9011;33.236;-97.118;2022-07-23T04:06:49;13.65;;;5.55;;
17773;SDS011;9011;33.236;-97.118;2022-07-23T04:09:17;11.02;;;4.70;;
17773;SDS011;9011;33.236;-97.118;2022-07-23T04:11:45;12.07;;;4.90;;
17773;SDS011;9011;33.236;-97.118;2022-07-23T04:14:15;11.05;;;5.30;;
17773;SDS011;9011;33.236;-97.118;2022-07-23T04:16:44;12.27;;;4.93;;
17773;SDS011;9011;33.236;-97.118;2022-07-23T04:19:12;10.93;;;4.97;;
17773;SDS011;9011;33.236;-97.118;2022-07-23T04:21:40;9.95;;;5.40;;
17773;SDS011;9011;33.236;-97.118;2022-07-23T04:24:09;7.78;;;5.05;;
17773;SDS011;9011;33.236;-97.118;2022-07-23T04:26:37;9.65;;;5.22;;
17773;SDS011;9011;33.236;-97.118;2022-07-23T04:29:05;11.20;;;4.88;;
17773;SDS011;9011;33.236;-97.118;2022-07-23T04:31:36;7.50;;;4.45;;
17773;SDS011;9011;33.236;-97.118;2022-07-23T04:34:04;8.13;;;4.95;;
17773;SDS011;9011;33.236;-97.118;2022-07-23T04:36:33;9.32;;;5.63;;
17773;SDS011;9011;33.236;-97.118;2022-07-23T04:39:01;10.63;;;5.30;;
17773;SDS011;9011;33.236;-97.118;2022-07-23T04:41:30;8.77;;;4.75;;
17773;SDS011;9011;33.236;-97.118;2022-07-23T04:43:59;10.82;;;4.82;;
17773;SDS011;9011;33.236;-97.118;2022-07-23T04:46:28;5.35;;;4.50;;
17773;SDS011;9011;33.236;-97.118;2022-07-23T04:48:58;7.50;;;4.20;;
17773;SDS011;9011;33.236;-97.118;2022-07-23T04:51:26;9.55;;;4.38;;
17773;SDS011;9011;33.236;-97.118;2022-07-23T04:53:55;6.30;;;3.45;;
17773;SDS011;9011;33.236;-97.118;2022-07-23T04:56:23;6.75;;;3.75;;
17773;SDS011;9011;33.236;-97.118;2022-07-23T04:58:51;8.95;;;3.95;;
17773;SDS011;9011;33.236;-97.118;2022-07-23T05:01:20;8.10;;;3.55;;
17773;SDS011;9011;33.236;-97.118;2022-07-23T05:03:49;7.25;;;3.00;;
17773;SDS011;9011;33.236;-97.118;2022-07-23T05:06:19;6.25;;;2.92;;
17773;SDS011;9011;33.236;-97.118;2022-07-23T05:08:47;6.60;;;3.00;;
17773;SDS011;9011;33.236;-97.118;2022-07-23T05:11:16;4.93;;;2.83;;
17773;SDS011;9011;33.236;-97.118;2022-07-23T05:13:44;7.55;;;3.38;;
17773;SDS011;9011;33.236;-97.118;2022-07-23T05:16:12;6.88;;;2.90;;
17773;SDS011;9011;33.236;-97.118;2022-07-23T05:18:41;5.22;;;2.55;;
17773;SDS011;9011;33.236;-97.118;2022-07-23T05:21:09;6.35;;;3.10;;
17773;SDS011;9011;33.236;-97.118;2022-07-23T05:23:39;6.78;;;2.65;;
17773;SDS011;9011;33.236;-97.118;2022-07-23T05:26:08;8.18;;;2.20;;
17773;SDS011;9011;33.236;-97.118;2022-07-23T05:28:36;6.47;;;2.80;;
17773;SDS011;9011;33.236;-97.118;2022-07-23T05:31:05;5.43;;;2.40;;
17773;SDS011;9011;33.236;-97.118;2022-07-23T05:33:33;4.90;;;2.05;;
17773;SDS011;9011;33.236;-97.118;2022-07-23T05:36:02;5.43;;;2.40;;
17773;SDS011;9011;33.236;-97.118;2022-07-23T05:38:31;5.88;;;2.70;;
17773;SDS011;9011;33.236;-97.118;2022-07-23T05:41:01;4.68;;;2.28;;
17773;SDS011;9011;33.236;-97.118;2022-07-23T05:43:30;6.03;;;2.40;;
17773;SDS011;9011;33.236;-97.118;2022-07-23T05:45:58;7.95;;;2.53;;
17773;SDS011;9011;33.236;-97.118;2022-07-23T05:48:27;2.95;;;2.42;;
17773;SDS011;9011;33.236;-97.118;2022-07-23T05:50:55;7.07;;;2.80;;
17773;SDS011;9011;33.236;-97.118;2022-07-23T05:53:23;9.32;;;3.00;;
17773;SDS011;9011;33.236;-97.118;2022-07-23T05:55:52;5.35;;;2.55;;
17773;SDS011;9011;33.236;-97.118;2022-07-23T05:58:22;6.80;;;2.75;;
17773;SDS011;9011;33.236;-97.118;2022-07-23T06:00:50;7.47;;;2.53;;
17773;SDS011;9011;33.236;-97.118;2022-07-23T06:03:18;5.05;;;2.30;;
17773;SDS011;9011;33.236;-97.118;2022-07-23T06:05:47;4.20;;;2.25;;
17773;SDS011;9011;33.236;-97.118;2022-07-23T06:08:15;7.10;;;2.55;;
17773;SDS011;9011;33.236;-97.118;2022-07-23T06:10:44;4.18;;;2.55;;
17773;SDS011;9011;33.236;-97.118;2022-07-23T06:13:12;5.47;;;2.42;;
17773;SDS011;9011;33.236;-97.118;2022-07-23T06:15:43;4.80;;;2.42;;
17773;SDS011;9011;33.236;-97.118;2022-07-23T06:18:11;5.47;;;3.13;;
17773;SDS011;9011;33.236;-97.118;2022-07-23T06:20:40;7.25;;;2.95;;
17773;SDS011;9011;33.236;-97.118;2022-07-23T06:23:09;4.75;;;2.20;;
17773;SDS011;9011;33.236;-97.118;2022-07-23T06:25:37;4.80;;;2.63;;
17773;SDS011;9011;33.236;-97.118;2022-07-23T06:28:06;8.07;;;2.97;;
17773;SDS011;9011;33.236;-97.118;2022-07-23T06:30:34;4.95;;;2.35;;
17773;SDS011;9011;33.236;-97.118;2022-07-23T06:33:04;5.22;;;2.80;;
17773;SDS011;9011;33.236;-97.118;2022-07-23T06:35:33;6.40;;;2.53;;
17773;SDS011;9011;33.236;-97.118;2022-07-23T06:38:01;6.65;;;2.67;;
17773;SDS011;9011;33.236;-97.118;2022-07-23T06:40:30;6.20;;;2.80;;
17773;SDS011;9011;33.236;-97.118;2022-07-23T06:42:58;7.35;;;2.40;;
17773;SDS011;9011;33.236;-97.118;2022-07-23T06:45:27;4.57;;;2.50;;
17773;SDS011;9011;33.236;-97.118;2022-07-23T06:47:55;5.25;;;2.90;;
17773;SDS011;9011;33.236;-97.118;2022-07-23T06:50:26;4.47;;;2.83;;
17773;SDS011;9011;33.236;-97.118;2022-07-23T06:52:54;4.53;;;2.60;;
17773;SDS011;9011;33.236;-97.118;2022-07-23T06:55:24;6.57;;;2.92;;
17773;SDS011;9011;33.236;-97.118;2022-07-23T06:57:53;7.30;;;2.92;;
17773;SDS011;9011;33.236;-97.118;2022-07-23T07:00:21;7.72;;;3.03;;
17773;SDS011;9011;33.236;-97.118;2022-07-23T07:02:53;9.40;;;3.08;;
17773;SDS011;9011;33.236;-97.118;2022-07-23T07:05:21;6.63;;;3.08;;
17773;SDS011;9011;33.236;-97.118;2022-07-23T07:07:54;5.75;;;3.30;;
17773;SDS011;9011;33.236;-97.118;2022-07-23T07:10:23;4.43;;;2.38;;
17773;SDS011;9011;33.236;-97.118;2022-07-23T07:12:51;3.40;;;2.55;;
17773;SDS011;9011;33.236;-97.118;2022-07-23T07:15:19;5.80;;;3.00;;
17773;SDS011;9011;33.236;-97.118;2022-07-23T07:17:48;4.93;;;2.65;;
17773;SDS011;9011;33.236;-97.118;2022-07-23T07:20:16;4.35;;;2.70;;
17773;SDS011;9011;33.236;-97.118;2022-07-23T07:22:45;6.63;;;2.72;;
17773;SDS011;9011;33.236;-97.118;2022-07-23T07:25:15;5.82;;;2.63;;
17773;SDS011;9011;33.236;-97.118;2022-07-23T07:27:43;5.50;;;3.53;;
17773;SDS011;9011;33.236;-97.118;2022-07-23T07:30:12;6.68;;;3.53;;
17773;SDS011;9011;33.236;-97.118;2022-07-23T07:32:41;6.22;;;2.70;;
17773;SDS011;9011;33.236;-97.118;2022-07-23T07:35:09;8.23;;;2.95;;
17773;SDS011;9011;33.236;-97.118;2022-07-23T07:37:38;8.00;;;3.20;;
17773;SDS011;9011;33.236;-97.118;2022-07-23T07:40:07;7.03;;;3.08;;
17773;SDS011;9011;33.236;-97.118;2022-07-23T07:42:45;5.65;;;3.35;;
17773;SDS011;9011;33.236;-97.118;2022-07-23T07:45:14;5.25;;;3.03;;
17773;SDS011;9011;33.236;-97.118;2022-07-23T07:47:42;5.95;;;2.85;;
17773;SDS011;9011;33.236;-97.118;2022-07-23T07:50:11;7.85;;;3.00;;
17773;SDS011;9011;33.236;-97.118;2022-07-23T07:52:39;5.22;;;2.53;;
17773;SDS011;9011;33.236;-97.118;2022-07-23T07:55:08;6.65;;;2.58;;
17773;SDS011;9011;33.236;-97.118;2022-07-23T07:57:37;4.85;;;2.65;;
17773;SDS011;9011;33.236;-97.118;2022-07-23T08:00:09;5.55;;;2.97;;
17773;SDS011;9011;33.236;-97.118;2022-07-23T08:02:41;4.57;;;2.30;;
17773;SDS011;9011;33.236;-97.118;2022-07-23T08:05:11;5.95;;;2.47;;
17773;SDS011;9011;33.236;-97.118;2022-07-23T08:07:40;7.15;;;2.90;;
17773;SDS011;9011;33.236;-97.118;2022-07-23T08:10:09;8.00;;;3.22;;
17773;SDS011;9011;33.236;-97.118;2022-07-23T08:12:38;6.38;;;3.40;;
17773;SDS011;9011;33.236;-97.118;2022-07-23T08:15:10;5.50;;;3.13;;
17773;SDS011;9011;33.236;-97.118;2022-07-23T08:17:39;9.07;;;2.67;;
17773;SDS011;9011;33.236;-97.118;2022-07-23T08:20:08;10.35;;;3.53;;
17773;SDS011;9011;33.236;-97.118;2022-07-23T08:22:41;5.32;;;3.20;;
17773;SDS011;9011;33.236;-97.118;2022-07-23T08:25:10;4.47;;;2.90;;
17773;SDS011;9011;33.236;-97.118;2022-07-23T08:27:39;8.55;;;2.97;;
17773;SDS011;9011;33.236;-97.118;2022-07-23T08:30:10;5.07;;;2.95;;
17773;SDS011;9011;33.236;-97.118;2022-07-23T08:32:51;9.02;;;3.50;;
17773;SDS011;9011;33.236;-97.118;2022-07-23T08:35:24;6.88;;;3.28;;
17773;SDS011;9011;33.236;-97.118;2022-07-23T08:37:54;6.70;;;3.20;;
17773;SDS011;9011;33.236;-97.118;2022-07-23T08:40:23;4.82;;;3.22;;
17773;SDS011;9011;33.236;-97.118;2022-07-23T08:42:53;5.80;;;2.70;;
17773;SDS011;9011;33.236;-97.118;2022-07-23T08:45:24;5.88;;;2.95;;
17773;SDS011;9011;33.236;-97.118;2022-07-23T08:47:54;7.03;;;2.80;;
17773;SDS011;9011;33.236;-97.118;2022-07-23T08:50:25;6.68;;;3.33;;
17773;SDS011;9011;33.236;-97.118;2022-07-23T08:52:54;8.30;;;3.05;;
17773;SDS011;9011;33.236;-97.118;2022-07-23T08:55:24;6.40;;;3.60;;
17773;SDS011;9011;33.236;-97.118;2022-07-23T08:57:52;7.50;;;3.50;;
17773;SDS011;9011;33.236;-97.118;2022-07-23T09:00:21;6.68;;;2.85;;
17773;SDS011;9011;33.236;-97.118;2022-07-23T09:02:51;7.65;;;3.05;;
17773;SDS011;9011;33.236;-97.118;2022-07-23T09:05:20;7.15;;;3.45;;
17773;SDS011;9011;33.236;-97.118;2022-07-23T09:08:07;11.57;;;3.67;;
17773;SDS011;9011;33.236;-97.118;2022-07-23T09:10:50;9.45;;;3.50;;
17773;SDS011;9011;33.236;-97.118;2022-07-23T09:13:27;5.05;;;3.08;;
17773;SDS011;9011;33.236;-97.118;2022-07-23T09:15:57;5.65;;;2.92;;
17773;SDS011;9011;33.236;-97.118;2022-07-23T09:18:38;9.15;;;3.38;;
17773;SDS011;9011;33.236;-97.118;2022-07-23T09:21:13;7.07;;;3.10;;
17773;SDS011;9011;33.236;-97.118;2022-07-23T09:23:43;8.23;;;3.63;;
17773;SDS011;9011;33.236;-97.118;2022-07-23T09:26:23;7.25;;;3.40;;
17773;SDS011;9011;33.236;-97.118;2022-07-23T09:29:00;5.32;;;3.25;;
17773;SDS011;9011;33.236;-97.118;2022-07-23T09:31:32;6.25;;;3.00;;
17773;SDS011;9011;33.236;-97.118;2022-07-23T09:34:11;10.25;;;3.60;;
17773;SDS011;9011;33.236;-97.118;2022-07-23T09:36:41;6.30;;;2.95;;
17773;SDS011;9011;33.236;-97.118;2022-07-23T09:39:10;6.45;;;3.60;;
17773;SDS011;9011;33.236;-97.118;2022-07-23T09:41:41;8.98;;;3.17;;
17773;SDS011;9011;33.236;-97.118;2022-07-23T09:44:11;7.28;;;2.80;;
17773;SDS011;9011;33.236;-97.118;2022-07-23T09:46:41;7.95;;;3.40;;
17773;SDS011;9011;33.236;-97.118;2022-07-23T09:49:15;7.28;;;2.92;;
17773;SDS011;9011;33.236;-97.118;2022-07-23T09:51:47;5.47;;;3.40;;
17773;SDS011;9011;33.236;-97.118;2022-07-23T09:54:20;7.78;;;3.75;;
17773;SDS011;9011;33.236;-97.118;2022-07-23T09:56:54;8.70;;;3.50;;
17773;SDS011;9011;33.236;-97.118;2022-07-23T09:59:24;7.43;;;3.47;;
17773;SDS011;9011;33.236;-97.118;2022-07-23T10:01:54;6.50;;;3.55;;
17773;SDS011;9011;33.236;-97.118;2022-07-23T10:07:22;6.72;;;3.75;;
17773;SDS011;9011;33.236;-97.118;2022-07-23T10:09:55;4.88;;;3.50;;
17773;SDS011;9011;33.236;-97.118;2022-07-23T10:12:25;10.52;;;3.97;;
17773;SDS011;9011;33.236;-97.118;2022-07-23T10:15:11;9.23;;;3.65;;
17773;SDS011;9011;33.236;-97.118;2022-07-23T10:17:40;6.88;;;3.30;;
17773;SDS011;9011;33.236;-97.118;2022-07-23T10:20:08;8.85;;;3.75;;
17773;SDS011;9011;33.236;-97.118;2022-07-23T10:22:38;8.63;;;3.42;;
17773;SDS011;9011;33.236;-97.118;2022-07-23T10:25:13;8.02;;;3.78;;
17773;SDS011;9011;33.236;-97.118;2022-07-23T10:27:59;9.10;;;4.07;;
17773;SDS011;9011;33.236;-97.118;2022-07-23T10:30:36;7.72;;;3.55;;
17773;SDS011;9011;33.236;-97.118;2022-07-23T10:33:15;8.38;;;4.40;;
17773;SDS011;9011;33.236;-97.118;2022-07-23T10:35:54;9.35;;;3.85;;
17773;SDS011;9011;33.236;-97.118;2022-07-23T10:38:31;7.18;;;3.70;;
17773;SDS011;9011;33.236;-97.118;2022-07-23T10:41:04;9.27;;;3.92;;
17773;SDS011;9011;33.236;-97.118;2022-07-23T10:43:33;6.60;;;3.33;;
17773;SDS011;9011;33.236;-97.118;2022-07-23T10:54:53;7.00;;;4.03;;
17773;SDS011;9011;33.236;-97.118;2022-07-23T10:57:23;7.85;;;3.83;;
17773;SDS011;9011;33.236;-97.118;2022-07-23T11:02:50;4.13;;;3.33;;
17773;SDS011;9011;33.236;-97.118;2022-07-23T11:05:20;12.45;;;4.28;;
17773;SDS011;9011;33.236;-97.118;2022-07-23T11:10:48;9.45;;;4.53;;
17773;SDS011;9011;33.236;-97.118;2022-07-23T11:16:15;6.07;;;3.92;;
17773;SDS011;9011;33.236;-97.118;2022-07-23T11:21:48;7.88;;;4.13;;
17773;SDS011;9011;33.236;-97.118;2022-07-23T11:24:21;6.43;;;4.20;;
17773;SDS011;9011;33.236;-97.118;2022-07-23T11:26:56;10.48;;;4.22;;
17773;SDS011;9011;33.236;-97.118;2022-07-23T11:29:44;8.38;;;4.38;;
17773;SDS011;9011;33.236;-97.118;2022-07-23T11:32:30;9.00;;;4.53;;
17773;SDS011;9011;33.236;-97.118;2022-07-23T11:37:52;6.93;;;3.88;;
17773;SDS011;9011;33.236;-97.118;2022-07-23T11:40:24;9.30;;;4.22;;
17773;SDS011;9011;33.236;-97.118;2022-07-23T11:42:56;11.13;;;4.50;;
17773;SDS011;9011;33.236;-97.118;2022-07-23T11:45:32;9.65;;;4.50;;
17773;SDS011;9011;33.236;-97.118;2022-07-23T11:48:02;7.50;;;4.35;;
17773;SDS011;9011;33.236;-97.118;2022-07-23T11:50:31;8.80;;;3.95;;
17773;SDS011;9011;33.236;-97.118;2022-07-23T11:53:00;9.30;;;4.53;;
17773;SDS011;9011;33.236;-97.118;2022-07-23T11:55:30;9.73;;;4.45;;
17773;SDS011;9011;33.236;-97.118;2022-07-23T11:58:00;6.78;;;3.95;;
17773;SDS011;9011;33.236;-97.118;2022-07-23T12:00:29;7.88;;;3.85;;
17773;SDS011;9011;33.236;-97.118;2022-07-23T12:02:58;8.63;;;4.13;;
17773;SDS011;9011;33.236;-97.118;2022-07-23T12:05:29;7.93;;;4.57;;
17773;SDS011;9011;33.236;-97.118;2022-07-23T12:07:59;11.48;;;4.57;;
17773;SDS011;9011;33.236;-97.118;2022-07-23T12:10:29;11.75;;;4.38;;
17773;SDS011;9011;33.236;-97.118;2022-07-23T12:13:03;10.70;;;4.53;;
17773;SDS011;9011;33.236;-97.118;2022-07-23T12:15:33;13.55;;;4.50;;
17773;SDS011;9011;33.236;-97.118;2022-07-23T12:18:03;7.53;;;4.07;;
17773;SDS011;9011;33.236;-97.118;2022-07-23T12:20:36;10.35;;;3.67;;
17773;SDS011;9011;33.236;-97.118;2022-07-23T12:23:07;11.32;;;4.60;;
17773;SDS011;9011;33.236;-97.118;2022-07-23T12:25:37;12.40;;;4.72;;
17773;SDS011;9011;33.236;-97.118;2022-07-23T12:28:09;7.05;;;3.88;;
17773;SDS011;9011;33.236;-97.118;2022-07-23T12:30:40;9.88;;;4.50;;
17773;SDS011;9011;33.236;-97.118;2022-07-23T12:33:10;8.77;;;4.93;;
17773;SDS011;9011;33.236;-97.118;2022-07-23T12:35:40;9.07;;;4.35;;
17773;SDS011;9011;33.236;-97.118;2022-07-23T12:38:11;7.82;;;4.03;;
17773;SDS011;9011;33.236;-97.118;2022-07-23T12:40:42;10.07;;;4.38;;
17773;SDS011;9011;33.236;-97.118;2022-07-23T12:43:19;8.80;;;4.30;;
17773;SDS011;9011;33.236;-97.118;2022-07-23T12:45:49;7.93;;;3.75;;
17773;SDS011;9011;33.236;-97.118;2022-07-23T12:48:19;12.38;;;4.15;;
17773;SDS011;9011;33.236;-97.118;2022-07-23T12:50:50;7.70;;;4.30;;
17773;SDS011;9011;33.236;-97.118;2022-07-23T12:53:21;6.70;;;4.28;;
17773;SDS011;9011;33.236;-97.118;2022-07-23T12:55:50;8.10;;;4.57;;
17773;SDS011;9011;33.236;-97.118;2022-07-23T12:58:32;10.23;;;4.45;;
17773;SDS011;9011;33.236;-97.118;2022-07-23T13:01:07;12.32;;;4.90;;
17773;SDS011;9011;33.236;-97.118;2022-07-23T13:03:37;10.00;;;4.15;;
17773;SDS011;9011;33.236;-97.118;2022-07-23T13:06:06;8.80;;;4.93;;
17773;SDS011;9011;33.236;-97.118;2022-07-23T13:08:36;10.65;;;4.75;;
17773;SDS011;9011;33.236;-97.118;2022-07-23T13:11:06;6.50;;;4.30;;
17773;SDS011;9011;33.236;-97.118;2022-07-23T13:13:36;6.13;;;4.40;;
17773;SDS011;9011;33.236;-97.118;2022-07-23T13:16:04;8.00;;;4.32;;
17773;SDS011;9011;33.236;-97.118;2022-07-23T13:18:33;11.15;;;4.63;;
17773;SDS011;9011;33.236;-97.118;2022-07-23T13:21:01;12.63;;;4.97;;
17773;SDS011;9011;33.236;-97.118;2022-07-23T13:23:30;8.82;;;4.68;;
17773;SDS011;9011;33.236;-97.118;2022-07-23T13:25:58;7.93;;;4.65;;
17773;SDS011;9011;33.236;-97.118;2022-07-23T13:28:27;8.90;;;4.40;;
17773;SDS011;9011;33.236;-97.118;2022-07-23T13:30:56;9.35;;;4.40;;
17773;SDS011;9011;33.236;-97.118;2022-07-23T13:33:25;10.75;;;4.63;;
17773;SDS011;9011;33.236;-97.118;2022-07-23T13:35:53;10.43;;;4.57;;
17773;SDS011;9011;33.236;-97.118;2022-07-23T13:38:22;9.95;;;3.97;;
17773;SDS011;9011;33.236;-97.118;2022-07-23T13:40:50;7.78;;;4.82;;
17773;SDS011;9011;33.236;-97.118;2022-07-23T13:43:20;5.80;;;4.07;;
17773;SDS011;9011;33.236;-97.118;2022-07-23T13:45:50;10.85;;;4.88;;
17773;SDS011;9011;33.236;-97.118;2022-07-23T13:48:21;9.65;;;3.95;;
17773;SDS011;9011;33.236;-97.118;2022-07-23T13:50:49;9.00;;;4.43;;
17773;SDS011;9011;33.236;-97.118;2022-07-23T13:53:19;8.98;;;3.58;;
17773;SDS011;9011;33.236;-97.118;2022-07-23T13:55:48;8.05;;;4.15;;
17773;SDS011;9011;33.236;-97.118;2022-07-23T13:58:17;8.43;;;4.13;;
17773;SDS011;9011;33.236;-97.118;2022-07-23T14:00:47;7.47;;;3.47;;
17773;SDS011;9011;33.236;-97.118;2022-07-23T14:03:17;7.07;;;4.32;;
17773;SDS011;9011;33.236;-97.118;2022-07-23T14:05:47;20.05;;;4.43;;
17773;SDS011;9011;33.236;-97.118;2022-07-23T14:08:16;10.60;;;3.75;;
17773;SDS011;9011;33.236;-97.118;2022-07-23T14:10:44;7.63;;;3.25;;
17773;SDS011;9011;33.236;-97.118;2022-07-23T14:13:12;6.78;;;3.90;;
17773;SDS011;9011;33.236;-97.118;2022-07-23T14:15:41;7.30;;;3.78;;
17773;SDS011;9011;33.236;-97.118;2022-07-23T14:18:09;9.35;;;3.13;;
17773;SDS011;9011;33.236;-97.118;2022-07-23T14:20:37;7.65;;;3.53;;
17773;SDS011;9011;33.236;-97.118;2022-07-23T14:23:07;7.22;;;3.58;;
17773;SDS011;9011;33.236;-97.118;2022-07-23T14:25:36;5.60;;;3.22;;
17773;SDS011;9011;33.236;-97.118;2022-07-23T14:28:04;14.40;;;3.95;;
17773;SDS011;9011;33.236;-97.118;2022-07-23T14:30:32;6.25;;;3.70;;
17773;SDS011;9011;33.236;-97.118;2022-07-23T14:33:01;8.15;;;3.30;;
17773;SDS011;9011;33.236;-97.118;2022-07-23T14:35:29;8.95;;;4.20;;
17773;SDS011;9011;33.236;-97.118;2022-07-23T14:37:57;10.07;;;4.00;;
17773;SDS011;9011;33.236;-97.118;2022-07-23T14:40:27;8.90;;;3.95;;
17773;SDS011;9011;33.236;-97.118;2022-07-23T14:42:55;22.35;;;5.25;;
17773;SDS011;9011;33.236;-97.118;2022-07-23T14:45:24;8.30;;;4.47;;
17773;SDS011;9011;33.236;-97.118;2022-07-23T14:47:54;7.75;;;3.05;;
17773;SDS011;9011;33.236;-97.118;2022-07-23T14:50:22;8.02;;;4.18;;
17773;SDS011;9011;33.236;-97.118;2022-07-23T14:52:50;6.10;;;3.53;;
17773;SDS011;9011;33.236;-97.118;2022-07-23T14:55:19;7.45;;;3.92;;
17773;SDS011;9011;33.236;-97.118;2022-07-23T14:57:49;12.88;;;3.55;;
17773;SDS011;9011;33.236;-97.118;2022-07-23T15:00:17;6.82;;;2.83;;
17773;SDS011;9011;33.236;-97.118;2022-07-23T15:02:45;7.60;;;3.25;;
17773;SDS011;9011;33.236;-97.118;2022-07-23T15:05:13;8.23;;;3.40;;
17773;SDS011;9011;33.236;-97.118;2022-07-23T15:07:42;6.07;;;3.30;;
17773;SDS011;9011;33.236;-97.118;2022-07-23T15:10:10;4.72;;;2.83;;
17773;SDS011;9011;33.236;-97.118;2022-07-23T15:12:39;4.90;;;3.28;;